createdAt,value
2023-05-10T00:11:05.055Z,100.00
2023-05-10T00:26:06.792Z,100.00
2023-05-10T00:41:08.981Z,100.00
2023-05-10T00:56:10.657Z,100.00
2023-05-10T01:11:12.470Z,100.00
2023-05-10T01:26:23.381Z,100.00
2023-05-10T01:41:46.498Z,100.00
2023-05-10T01:57:01.050Z,100.00
2023-05-10T02:12:04.937Z,100.00
2023-05-10T02:27:08.899Z,100.00
2023-05-10T02:42:20.607Z,100.00
2023-05-10T02:57:28.675Z,100.00
2023-05-10T03:12:42.466Z,100.00
2023-05-10T03:27:46.264Z,100.00
2023-05-10T03:42:47.949Z,100.00
2023-05-10T03:57:50.748Z,100.00
2023-05-10T04:12:52.444Z,100.00
2023-05-10T04:27:54.240Z,100.00
2023-05-10T04:42:56.281Z,100.00
2023-05-10T04:57:58.425Z,100.00
2023-05-10T05:13:00.286Z,100.00
2023-05-10T05:28:02.638Z,100.00
2023-05-10T05:43:04.354Z,100.00
2023-05-10T05:58:06.118Z,100.00
2023-05-10T06:13:07.956Z,100.00
2023-05-10T06:28:09.767Z,100.00
2023-05-10T06:43:11.444Z,100.00
2023-05-10T06:58:13.644Z,100.00
2023-05-10T07:13:15.329Z,100.00
2023-05-10T07:28:20.074Z,100.00
2023-05-10T07:43:21.756Z,100.00
2023-05-10T07:58:23.510Z,98.57
2023-05-10T08:13:25.321Z,100.00
2023-05-10T08:28:27.008Z,100.00
2023-05-10T08:43:32.676Z,100.00
2023-05-10T08:58:34.514Z,100.00
2023-05-10T09:13:37.152Z,100.00
2023-05-10T09:29:11.153Z,100.00
2023-05-10T09:44:13.739Z,100.00
2023-05-10T09:59:15.698Z,100.00
2023-05-10T10:14:19.692Z,100.00
2023-05-10T10:29:33.858Z,100.00
2023-05-10T10:44:39.146Z,100.00
2023-05-10T10:59:47.478Z,100.00
2023-05-10T11:14:52.834Z,98.72
2023-05-10T11:29:54.538Z,99.95
2023-05-10T11:44:56.271Z,98.75
2023-05-10T11:59:58.516Z,97.28
2023-05-10T12:15:00.416Z,98.54
2023-05-10T12:30:03.675Z,100.00
2023-05-10T12:45:06.405Z,98.94
2023-05-10T13:00:08.718Z,99.86
2023-05-10T13:15:10.738Z,99.01
2023-05-10T13:30:12.666Z,98.67
2023-05-10T13:45:14.469Z,96.22
2023-05-10T14:00:17.405Z,97.36
2023-05-10T14:15:19.320Z,95.90
2023-05-10T14:30:21.808Z,96.96
2023-05-10T14:45:24.254Z,97.17
2023-05-10T15:00:26.071Z,98.62
2023-05-10T15:15:28.142Z,94.58
2023-05-10T15:30:30.101Z,94.72
2023-05-10T15:45:32.372Z,92.48
2023-05-10T16:00:34.206Z,90.97
2023-05-10T16:15:35.978Z,91.04
2023-05-10T16:30:37.825Z,89.39
2023-05-10T16:45:39.776Z,88.67
2023-05-10T17:00:41.731Z,87.44
2023-05-10T17:15:45.882Z,88.08
2023-05-10T17:30:47.808Z,88.42
2023-05-10T17:45:49.858Z,88.45
2023-05-10T18:00:57.635Z,86.22
2023-05-10T18:15:59.451Z,86.09
2023-05-10T18:31:01.165Z,85.18
2023-05-10T18:46:02.972Z,83.84
2023-05-10T19:01:04.897Z,83.08
2023-05-10T19:16:13.227Z,82.97
2023-05-10T19:31:15.050Z,83.36
2023-05-10T19:46:17.967Z,82.92
2023-05-10T20:01:21.831Z,84.92
2023-05-10T20:16:25.925Z,84.52
2023-05-10T20:31:29.301Z,84.38
2023-05-10T20:46:31.536Z,83.67
2023-05-10T21:01:33.231Z,84.63
2023-05-10T21:16:34.959Z,84.88
2023-05-10T21:31:36.894Z,84.70
2023-05-10T21:46:38.596Z,84.43
2023-05-10T22:01:40.478Z,85.60
2023-05-10T22:16:42.391Z,86.17
2023-05-10T22:31:44.095Z,84.71
2023-05-10T22:46:45.810Z,87.07
2023-05-10T23:01:49.031Z,87.30
2023-05-10T23:16:50.977Z,88.82
2023-05-10T23:31:52.760Z,92.52
2023-05-10T23:46:54.462Z,90.91
